Time;durP1;ratioP1;P1;durP2;ratioP2;P2;SDS_P1;SDS_P2;PMS_P1;PMS_P2;Temp;Humidity;BMP_temperature;BMP_pressure;BME280_temperature;BME280_humidity;BME280_pressure;Samples;Min_cycle;Max_cycle;Signal;HPM_P1;HPM_P2
2022/07/24 00:00:16;;;;;;;12.63;11.18;;;;;;;15.03;100.00;93561.78;2091419;28;20025;-84
2022/07/24 00:01:17;;;;;;;14.25;12.23;;;;;;;14.95;100.00;93554.38;2089968;28;20500;-82
2022/07/24 00:02:18;;;;;;;13.52;12.13;;;;;;;14.85;100.00;93556.22;2089851;28;20013;-82
2022/07/24 00:03:19;;;;;;;16.70;13.07;;;;;;;14.85;100.00;93558.91;2081643;28;20090;-83
2022/07/24 00:04:19;;;;;;;15.18;13.00;;;;;;;14.97;100.00;93549.28;2089807;28;20029;-82
2022/07/24 00:05:21;;;;;;;14.07;12.18;;;;;;;14.97;100.00;93555.44;2089795;28;20686;-85
2022/07/24 00:06:22;;;;;;;15.02;12.88;;;;;;;14.99;100.00;93555.00;2094060;28;20073;-84
2022/07/24 00:07:23;;;;;;;14.07;12.55;;;;;;;14.89;100.00;93556.09;2090025;28;20017;-83
2022/07/24 00:08:24;;;;;;;15.18;12.68;;;;;;;14.88;100.00;93557.28;2085038;28;20060;-82
2022/07/24 00:09:25;;;;;;;16.67;13.05;;;;;;;14.89;100.00;93561.50;2090434;28;20028;-83
2022/07/24 00:10:26;;;;;;;15.38;12.60;;;;;;;14.92;100.00;93557.91;2090838;28;20048;-83
2022/07/24 00:11:27;;;;;;;13.52;12.23;;;;;;;14.90;100.00;93552.22;2081451;28;20450;-83
2022/07/24 00:12:28;;;;;;;13.57;12.38;;;;;;;14.85;100.00;93558.91;2087784;28;20104;-84
2022/07/24 00:13:29;;;;;;;14.32;12.82;;;;;;;14.86;100.00;93555.03;2096836;28;20472;-84
2022/07/24 00:14:30;;;;;;;13.85;12.48;;;;;;;14.99;100.00;93555.00;2088895;28;20052;-82
2022/07/24 00:15:31;;;;;;;14.18;12.63;;;;;;;15.00;100.00;93561.88;2080127;28;20017;-84
2022/07/24 00:16:32;;;;;;;15.05;13.50;;;;;;;14.99;100.00;93563.84;2096724;28;20026;-83
2022/07/24 00:17:33;;;;;;;14.48;13.05;;;;;;;15.00;100.00;93556.50;2085809;28;20013;-82
2022/07/24 00:18:35;;;;;;;14.45;12.95;;;;;;;14.92;100.00;93549.84;2088830;28;20059;-83
2022/07/24 00:19:36;;;;;;;14.82;12.48;;;;;;;14.91;100.00;93554.47;2086081;28;20033;-83
2022/07/24 00:20:38;;;;;;;14.43;12.35;;;;;;;14.86;100.00;93557.72;2088810;28;20043;-83
2022/07/24 00:21:38;;;;;;;14.95;13.35;;;;;;;14.85;100.00;93553.53;2077299;28;20017;-82
2022/07/24 00:22:39;;;;;;;16.83;12.95;;;;;;;14.82;100.00;93551.69;2089875;28;20025;-83
2022/07/24 00:23:41;;;;;;;13.60;12.20;;;;;;;14.78;100.00;93551.78;2092000;28;20111;-82
2022/07/24 00:24:42;;;;;;;15.25;13.00;;;;;;;14.81;100.00;93553.63;2083843;28;20451;-83
2022/07/24 00:25:43;;;;;;;14.90;12.75;;;;;;;14.78;100.00;93557.16;2095447;28;20025;-84
2022/07/24 00:26:44;;;;;;;14.40;12.90;;;;;;;14.75;100.00;93551.88;2101977;28;20374;-83
2022/07/24 00:27:45;;;;;;;15.50;13.27;;;;;;;14.80;100.00;93554.06;2084825;28;20025;-83
2022/07/24 00:28:48;;;;;;;16.20;14.00;;;;;;;14.84;100.00;93552.78;2085396;28;20037;-83
2022/07/24 00:29:49;;;;;;;16.40;12.93;;;;;;;14.84;100.00;93555.47;2100111;28;20032;-84
2022/07/24 00:30:50;;;;;;;13.80;12.45;;;;;;;14.86;100.00;93552.31;2098089;28;20448;-84
2022/07/24 00:31:51;;;;;;;14.30;12.88;;;;;;;14.96;100.00;93553.91;2098077;28;20182;-84
2022/07/24 00:32:52;;;;;;;14.40;12.95;;;;;;;14.97;100.00;93549.28;2105845;28;20021;-84
2022/07/24 00:33:53;;;;;;;14.20;12.70;;;;;;;15.05;100.00;93553.25;2105369;28;20051;-83
2022/07/24 00:34:54;;;;;;;14.38;12.90;;;;;;;14.85;100.00;93545.44;2090087;28;20026;-84
2022/07/24 00:35:55;;;;;;;15.65;12.68;;;;;;;14.74;100.00;93550.38;2100845;28;20070;-84
2022/07/24 00:36:56;;;;;;;14.05;12.57;;;;;;;14.88;100.00;93543.81;2106227;28;20059;-83
2022/07/24 00:37:57;;;;;;;16.33;12.93;;;;;;;14.86;100.00;93541.56;2099188;28;20040;-82
2022/07/24 00:38:58;;;;;;;14.45;12.50;;;;;;;14.91;100.00;93541.00;2097728;28;20028;-84
2022/07/24 00:39:59;;;;;;;16.15;13.35;;;;;;;14.92;100.00;93547.16;2090711;28;20375;-83
2022/07/24 00:41:00;;;;;;;14.90;13.27;;;;;;;14.77;100.00;93547.59;2094230;28;20524;-83
2022/07/24 00:42:00;;;;;;;13.68;12.35;;;;;;;14.78;100.00;93545.66;2089430;28;20012;-82
2022/07/24 00:43:03;;;;;;;17.70;13.25;;;;;;;14.90;100.00;93539.50;2098626;28;20557;-83
2022/07/24 00:44:09;;;;;;;15.38;13.00;;;;;;;14.97;100.00;93542.00;2095333;28;20501;-82
2022/07/24 00:45:10;;;;;;;13.98;12.60;;;;;;;15.01;100.00;93542.63;2103859;28;20015;-84
2022/07/24 00:46:11;;;;;;;15.85;13.30;;;;;;;15.01;100.00;93533.78;2099627;28;20034;-83
2022/07/24 00:47:12;;;;;;;17.52;13.38;;;;;;;14.94;100.00;93539.41;2095241;28;20020;-83
2022/07/24 00:48:13;;;;;;;14.38;12.98;;;;;;;14.78;100.00;93541.03;2106167;28;20506;-84
2022/07/24 00:49:19;;;;;;;14.65;12.55;;;;;;;14.70;100.00;93528.97;2087094;28;20017;-84
2022/07/24 00:50:20;;;;;;;14.88;13.23;;;;;;;14.65;100.00;93539.53;2076407;28;20033;-83
2022/07/24 00:51:21;;;;;;;22.55;13.52;;;;;;;14.50;100.00;93542.66;2095514;28;20028;-82
2022/07/24 00:52:22;;;;;;;15.63;13.60;;;;;;;14.43;100.00;93540.13;2110323;28;20023;-84
2022/07/24 00:53:23;;;;;;;16.58;13.88;;;;;;;14.47;100.00;93546.16;2097750;28;20050;-83
2022/07/24 00:54:24;;;;;;;15.35;13.38;;;;;;;14.56;100.00;93545.53;2090008;28;20490;-83
2022/07/24 00:55:26;;;;;;;15.23;13.60;;;;;;;14.61;100.00;93548.44;2095049;28;20063;-85
2022/07/24 00:56:27;;;;;;;15.25;12.45;;;;;;;14.69;100.00;93548.25;2097667;28;20020;-84
2022/07/24 00:57:30;;;;;;;14.75;12.88;;;;;;;14.68;100.00;93542.13;2082074;28;20025;-84
2022/07/24 00:58:31;;;;;;;14.48;12.98;;;;;;;14.64;100.00;93543.41;2085285;28;20572;-83
2022/07/24 00:59:31;;;;;;;13.73;11.88;;;;;;;14.61;100.00;93540.38;2094376;28;20020;-83
2022/07/24 01:00:33;;;;;;;15.00;12.82;;;;;;;14.65;100.00;93540.28;2105989;28;20040;-82
2022/07/24 01:01:34;;;;;;;15.20;12.80;;;;;;;14.67;100.00;93540.63;2093582;28;20147;-83
2022/07/24 01:02:34;;;;;;;17.77;13.80;;;;;;;14.70;100.00;93536.28;2100407;28;20028;-84
2022/07/24 01:03:35;;;;;;;14.70;13.20;;;;;;;14.68;100.00;93536.72;2104056;28;20020;-84
2022/07/24 01:04:38;;;;;;;14.35;12.43;;;;;;;14.54;100.00;93543.28;2086117;28;20048;-83
2022/07/24 01:05:39;;;;;;;14.85;12.43;;;;;;;14.52;100.00;93537.59;2087841;28;20029;-84
2022/07/24 01:06:41;;;;;;;13.73;12.45;;;;;;;14.57;100.00;93539.75;2080785;28;20501;-82
2022/07/24 01:07:42;;;;;;;13.90;12.50;;;;;;;14.53;100.00;93536.41;2079095;28;20099;-83
2022/07/24 01:08:43;;;;;;;15.43;13.02;;;;;;;14.55;100.00;93531.34;2094726;28;20391;-84
2022/07/24 01:09:44;;;;;;;14.70;12.80;;;;;;;14.52;100.00;93531.44;2098167;28;20526;-83
2022/07/24 01:10:46;;;;;;;14.18;12.68;;;;;;;14.49;100.00;93535.78;2089214;28;20017;-83
2022/07/24 01:11:47;;;;;;;16.38;12.63;;;;;;;14.53;100.00;93533.72;2089288;28;20032;-84
2022/07/24 01:12:48;;;;;;;13.35;12.07;;;;;;;14.53;100.00;93533.72;2090252;28;20070;-84
2022/07/24 01:13:50;;;;;;;14.57;13.07;;;;;;;14.42;100.00;93529.81;2089834;28;20043;-82
2022/07/24 01:14:51;;;;;;;14.48;12.80;;;;;;;14.25;100.00;93532.59;2081334;28;20433;-82
2022/07/24 01:15:52;;;;;;;13.77;12.48;;;;;;;14.19;100.00;93541.63;2081753;28;20147;-84
2022/07/24 01:16:53;;;;;;;14.40;12.98;;;;;;;14.20;100.00;93538.50;2074094;28;20030;-84
2022/07/24 01:17:56;;;;;;;13.20;11.90;;;;;;;14.19;100.00;93539.69;2081561;28;20019;-83
2022/07/24 01:18:57;;;;;;;15.10;13.50;;;;;;;14.28;100.00;93547.13;2100755;28;20040;-84
2022/07/24 01:19:59;;;;;;;15.90;12.82;;;;;;;14.32;100.00;93539.72;2099987;28;20489;-84
2022/07/24 01:21:00;;;;;;;14.38;12.95;;;;;;;14.34;100.00;93540.03;2092528;28;20108;-84
2022/07/24 01:22:01;;;;;;;14.75;13.00;;;;;;;14.34;100.00;93531.94;2089461;28;20496;-81
2022/07/24 01:23:02;;;;;;;15.88;13.38;;;;;;;14.36;100.00;93532.28;2088967;28;20055;-84
2022/07/24 01:24:03;;;;;;;16.27;13.30;;;;;;;14.22;100.00;93532.69;2082088;28;20059;-84
2022/07/24 01:25:05;;;;;;;14.55;13.05;;;;;;;14.18;100.00;93523.97;2080387;28;20093;-84
2022/07/24 01:26:07;;;;;;;16.70;13.15;;;;;;;14.21;100.00;93531.94;2087778;28;20474;-82
2022/07/24 01:27:08;;;;;;;14.77;13.05;;;;;;;14.27;100.00;93532.19;2092254;28;20390;-82
2022/07/24 01:28:09;;;;;;;13.85;12.15;;;;;;;14.34;100.00;93531.94;2097266;28;20055;-83
2022/07/24 01:29:11;;;;;;;14.68;12.75;;;;;;;14.35;100.00;93538.84;2094226;28;20058;-84
2022/07/24 01:30:12;;;;;;;14.63;13.13;;;;;;;14.36;100.00;93535.72;2081012;28;20025;-82
2022/07/24 01:31:13;;;;;;;14.35;12.85;;;;;;;14.25;100.00;93531.84;2089614;28;20013;-84
2022/07/24 01:32:14;;;;;;;14.30;12.90;;;;;;;14.27;100.00;93530.25;2102998;28;20031;-84
2022/07/24 01:33:16;;;;;;;14.13;12.65;;;;;;;14.27;100.00;93532.19;2091027;28;20024;-83
2022/07/24 01:34:17;;;;;;;14.50;13.00;;;;;;;14.26;100.00;93527.97;2081717;28;20143;-85
2022/07/24 01:35:18;;;;;;;14.15;12.75;;;;;;;14.12;100.00;93534.50;2079628;28;20108;-84
2022/07/24 01:36:19;;;;;;;13.60;12.23;;;;;;;14.08;100.00;93528.47;2073081;28;20899;-83
2022/07/24 01:37:20;;;;;;;14.55;12.75;;;;;;;14.05;100.00;93527.41;2088885;28;20025;-84
2022/07/24 01:38:22;;;;;;;14.15;12.77;;;;;;;14.04;100.00;93533.94;2090808;28;20028;-85
2022/07/24 01:39:23;;;;;;;15.23;13.15;;;;;;;13.95;100.00;93539.19;2081055;28;20025;-85
2022/07/24 01:40:24;;;;;;;14.68;13.18;;;;;;;13.97;100.00;93538.78;2091498;28;20528;-83
2022/07/24 01:41:25;;;;;;;13.85;12.45;;;;;;;14.05;100.00;93535.47;2089104;28;20044;-84
2022/07/24 01:42:26;;;;;;;19.38;12.80;;;;;;;14.06;100.00;93528.16;2088901;28;20470;-84
2022/07/24 01:43:26;;;;;;;14.40;13.00;;;;;;;14.14;100.00;93537.53;2080809;28;20029;-82
2022/07/24 01:44:27;;;;;;;16.25;12.50;;;;;;;14.03;100.00;93529.75;2088988;28;20029;-83
2022/07/24 01:45:28;;;;;;;14.57;13.18;;;;;;;13.97;100.00;93534.16;2075285;28;20120;-83
2022/07/24 01:46:29;;;;;;;14.80;13.25;;;;;;;13.96;100.00;93540.72;2084170;28;20566;-84
2022/07/24 01:47:30;;;;;;;14.95;13.15;;;;;;;13.93;100.00;93538.88;2081642;28;20021;-84
2022/07/24 01:48:32;;;;;;;15.60;13.15;;;;;;;13.92;100.00;93536.63;2080821;28;20553;-84
2022/07/24 01:49:33;;;;;;;13.52;12.10;;;;;;;14.00;100.00;93537.91;2097250;28;20035;-82
2022/07/24 01:50:34;;;;;;;14.80;12.82;;;;;;;13.95;100.00;93536.50;2088698;28;20044;-82
2022/07/24 01:51:35;;;;;;;14.55;12.48;;;;;;;13.91;100.00;93535.84;2076466;28;20030;-82
2022/07/24 01:52:36;;;;;;;14.10;12.75;;;;;;;13.89;100.00;93542.84;2082181;28;20086;-83
2022/07/24 01:53:37;;;;;;;14.95;13.25;;;;;;;14.01;100.00;93539.44;2099258;28;20092;-84
2022/07/24 01:54:38;;;;;;;14.52;12.63;;;;;;;14.05;100.00;93538.16;2097179;28;20020;-84
2022/07/24 01:55:39;;;;;;;13.68;12.23;;;;;;;14.08;100.00;93536.53;2089799;28;20107;-83
2022/07/24 01:56:40;;;;;;;14.43;12.93;;;;;;;14.05;100.00;93535.47;2085298;28;20063;-83
2022/07/24 01:57:41;;;;;;;14.52;13.10;;;;;;;14.02;100.00;93535.56;2090582;28;20036;-85
2022/07/24 01:58:42;;;;;;;14.77;12.35;;;;;;;13.82;100.00;93533.78;2074219;28;20113;-84
2022/07/24 01:59:43;;;;;;;14.50;12.90;;;;;;;13.86;100.00;93531.75;2091791;28;20126;-84
2022/07/24 02:00:44;;;;;;;13.88;12.57;;;;;;;13.86;100.00;93529.06;2098199;28;20108;-84
2022/07/24 02:01:45;;;;;;;14.00;12.70;;;;;;;13.82;100.00;93527.66;2089117;28;20028;-83
2022/07/24 02:02:46;;;;;;;14.30;12.85;;;;;;;13.80;100.00;93530.78;2092784;28;20016;-83
2022/07/24 02:03:48;;;;;;;15.77;12.75;;;;;;;13.82;100.00;93533.03;2082713;28;20057;-84
2022/07/24 02:04:49;;;;;;;14.00;12.50;;;;;;;13.79;100.00;93525.84;2081148;28;20033;-83
2022/07/24 02:05:50;;;;;;;16.83;13.20;;;;;;;13.76;100.00;93526.69;2081876;28;20155;-83
2022/07/24 02:06:50;;;;;;;16.23;12.90;;;;;;;13.77;100.00;93536.25;2093148;28;20052;-83
2022/07/24 02:07:59;;;;;;;16.85;12.52;;;;;;;13.82;100.00;93528.41;2088894;28;20029;-83
2022/07/24 02:09:01;;;;;;;13.80;12.40;;;;;;;13.93;100.00;93530.06;2088985;28;20021;-84
2022/07/24 02:10:02;;;;;;;14.90;12.80;;;;;;;14.01;100.00;93529.44;2093010;28;20017;-84
2022/07/24 02:11:04;;;;;;;13.85;11.82;;;;;;;13.99;100.00;93531.78;2084020;28;20017;-83
2022/07/24 02:12:06;;;;;;;14.82;12.80;;;;;;;13.86;100.00;93526.38;2084764;28;20025;-84
2022/07/24 02:14:31;;;;;;;;;;;;;;;13.98;100.00;93526.84;2136261;27;20547;-68
2022/07/24 02:15:33;;;;;;;15.07;13.07;;;;;;;13.97;100.00;93523.41;2135012;27;20356;-66
2022/07/24 02:16:34;;;;;;;14.15;12.75;;;;;;;13.97;100.00;93519.97;2134228;27;20151;-67
2022/07/24 02:17:35;;;;;;;17.02;12.68;;;;;;;13.99;100.00;93526.41;2134738;27;20079;-68
2022/07/24 02:18:36;;;;;;;14.48;12.80;;;;;;;14.00;100.00;93519.84;2133607;27;20044;-69
2022/07/24 02:19:37;;;;;;;14.18;12.77;;;;;;;13.98;100.00;93522.22;2133993;27;20071;-70
2022/07/24 02:20:38;;;;;;;15.25;13.25;;;;;;;13.94;100.00;93518.13;2134043;27;20357;-69
2022/07/24 02:21:39;;;;;;;14.20;12.70;;;;;;;13.88;100.00;93520.59;2132868;27;20117;-71
2022/07/24 02:22:40;;;;;;;14.15;12.75;;;;;;;13.82;100.00;93524.97;2133796;27;20035;-69
2022/07/24 02:23:41;;;;;;;14.20;12.80;;;;;;;13.69;100.00;93526.88;2133665;27;20023;-69
2022/07/24 02:24:42;;;;;;;16.13;12.38;;;;;;;13.73;100.00;93524.84;2124037;27;20050;-69
2022/07/24 02:25:47;;;;;;;13.75;12.43;;;;;;;13.80;100.00;93528.09;2123156;27;20036;-69
2022/07/24 02:26:49;;;;;;;14.27;12.65;;;;;;;13.84;100.00;93528.00;2123449;27;20042;-70
2022/07/24 02:27:49;;;;;;;14.98;13.23;;;;;;;13.78;100.00;93532.38;2124308;27;20075;-69
2022/07/24 02:28:50;;;;;;;14.18;12.68;;;;;;;13.73;100.00;93525.59;2134769;27;20049;-70
2022/07/24 02:29:51;;;;;;;13.65;11.85;;;;;;;13.85;100.00;93527.56;2133832;27;20065;-71
2022/07/24 02:30:54;;;;;;;15.57;12.85;;;;;;;13.83;100.00;93529.94;2134411;27;20030;-69
2022/07/24 02:31:55;;;;;;;14.20;12.65;;;;;;;13.91;100.00;93535.09;2124404;27;20431;-71
2022/07/24 02:32:56;;;;;;;14.23;12.45;;;;;;;14.06;100.00;93530.84;2123387;27;20032;-69
2022/07/24 02:33:57;;;;;;;14.45;12.95;;;;;;;14.03;100.00;93532.44;2134313;27;20042;-70
2022/07/24 02:34:58;;;;;;;14.77;13.27;;;;;;;14.05;100.00;93530.09;2133842;27;20068;-67
2022/07/24 02:35:59;;;;;;;15.23;13.63;;;;;;;14.02;100.00;93528.25;2134994;27;20058;-68
2022/07/24 02:37:00;;;;;;;14.50;12.63;;;;;;;14.10;100.00;93532.25;2135410;27;20023;-72
2022/07/24 02:38:01;;;;;;;15.20;13.48;;;;;;;14.04;100.00;93531.25;2133366;27;20023;-69
2022/07/24 02:39:03;;;;;;;13.48;12.13;;;;;;;14.00;100.00;93537.91;2135082;27;20057;-69
2022/07/24 02:40:06;;;;;;;15.90;11.82;;;;;;;13.98;100.00;93534.91;2134105;27;20056;-69
2022/07/24 02:41:07;;;;;;;14.23;12.73;;;;;;;13.83;100.00;93526.50;2134847;27;20133;-68
2022/07/24 02:42:08;;;;;;;14.80;13.10;;;;;;;13.79;100.00;93528.53;2134607;27;20038;-71
2022/07/24 02:43:09;;;;;;;13.75;12.35;;;;;;;13.82;100.00;93538.41;2133471;27;21133;-68
2022/07/24 02:44:11;;;;;;;17.40;12.85;;;;;;;13.76;100.00;93532.06;2135135;27;20034;-68
2022/07/24 02:45:12;;;;;;;14.95;13.35;;;;;;;13.70;100.00;93531.84;2133334;27;20548;-69
2022/07/24 02:46:13;;;;;;;14.00;12.55;;;;;;;13.81;100.00;93526.91;2134594;27;20490;-70
2022/07/24 02:47:14;;;;;;;14.73;13.07;;;;;;;13.84;100.00;93530.69;2134306;27;20627;-68
2022/07/24 02:48:15;;;;;;;14.30;12.80;;;;;;;13.86;100.00;93528.31;2134278;27;20026;-68
2022/07/24 02:49:16;;;;;;;13.50;12.20;;;;;;;13.83;100.00;93529.19;2134761;27;20117;-66
2022/07/24 02:50:18;;;;;;;13.90;12.50;;;;;;;13.74;100.00;93531.72;2134412;27;20037;-66
2022/07/24 02:51:20;;;;;;;13.65;12.25;;;;;;;13.70;100.00;93525.72;2133320;27;20062;-67
2022/07/24 02:52:21;;;;;;;13.80;12.40;;;;;;;13.67;100.00;93523.88;2132650;27;20027;-71
2022/07/24 02:53:23;;;;;;;14.85;12.75;;;;;;;13.76;100.00;93526.69;2134033;27;20027;-71
2022/07/24 02:54:24;;;;;;;17.80;12.65;;;;;;;13.79;100.00;93523.16;2134528;27;20046;-68
2022/07/24 02:55:28;;;;;;;14.40;12.90;;;;;;;13.88;100.00;93525.97;2134569;27;20027;-68
2022/07/24 02:56:29;;;;;;;13.75;12.35;;;;;;;13.93;100.00;93525.44;2133539;27;20036;-68
2022/07/24 02:57:30;;;;;;;14.90;13.27;;;;;;;13.92;100.00;93539.31;2123252;27;20031;-68
2022/07/24 02:58:31;;;;;;;15.20;13.60;;;;;;;13.76;100.00;93535.50;2122940;27;20124;-68
2022/07/24 02:59:32;;;;;;;14.07;12.65;;;;;;;13.73;100.00;93535.59;2133465;27;20164;-67
2022/07/24 03:00:33;;;;;;;15.40;12.32;;;;;;;13.79;100.00;93533.91;2133930;27;20084;-67
2022/07/24 03:01:34;;;;;;;14.63;12.65;;;;;;;13.82;100.00;93528.41;2123228;27;20913;-68
2022/07/24 03:02:35;;;;;;;13.23;12.00;;;;;;;13.75;100.00;93530.56;2122909;27;20696;-69
2022/07/24 03:03:36;;;;;;;14.52;13.02;;;;;;;13.77;100.00;93531.63;2123497;27;20384;-71
2022/07/24 03:04:37;;;;;;;16.08;13.20;;;;;;;13.81;100.00;93524.22;2121605;27;20036;-68
2022/07/24 03:05:38;;;;;;;13.95;12.50;;;;;;;13.76;100.00;93527.44;2133575;27;20035;-67
2022/07/24 03:06:39;;;;;;;14.45;12.13;;;;;;;13.66;100.00;93525.81;2133313;27;20026;-67
2022/07/24 03:07:40;;;;;;;15.52;12.55;;;;;;;13.56;100.00;93526.81;2134192;27;20517;-67
2022/07/24 03:08:41;;;;;;;14.02;12.15;;;;;;;13.68;100.00;93523.44;2134536;27;20073;-67
2022/07/24 03:09:42;;;;;;;14.35;12.77;;;;;;;13.73;100.00;93528.28;2134392;27;20035;-67
2022/07/24 03:10:43;;;;;;;13.85;12.45;;;;;;;13.72;100.00;93520.66;2133522;27;20113;-67
2022/07/24 03:11:44;;;;;;;14.77;11.63;;;;;;;13.68;100.00;93528.06;2134637;27;20030;-67
2022/07/24 03:12:45;;;;;;;13.98;12.55;;;;;;;13.72;100.00;93526.78;2133807;27;20031;-69
2022/07/24 03:13:46;;;;;;;17.38;13.00;;;;;;;13.73;100.00;93524.84;2134202;27;20094;-68
2022/07/24 03:14:47;;;;;;;14.98;12.02;;;;;;;13.69;100.00;93518.81;2132749;27;20054;-71
2022/07/24 03:15:48;;;;;;;13.38;11.93;;;;;;;13.68;100.00;93518.06;2133998;27;20115;-65
2022/07/24 03:16:49;;;;;;;15.10;13.18;;;;;;;13.67;100.00;93516.56;2135152;27;20045;-71
2022/07/24 03:17:55;;;;;;;13.85;12.38;;;;;;;13.55;100.00;93514.56;2134141;27;20046;-68
2022/07/24 03:18:57;;;;;;;12.98;11.73;;;;;;;13.49;100.00;93522.41;2134181;27;20154;-67
2022/07/24 03:19:59;;;;;;;13.88;12.48;;;;;;;13.49;100.00;93514.34;2133693;27;20361;-68
2022/07/24 03:20:59;;;;;;;13.65;12.35;;;;;;;13.55;100.00;93515.31;2133436;27;20023;-69
2022/07/24 03:22:00;;;;;;;14.02;12.52;;;;;;;13.52;100.00;93512.72;2134436;27;20112;-67
2022/07/24 03:23:01;;;;;;;18.95;12.85;;;;;;;13.46;100.00;93511.75;2133638;27;20117;-67
2022/07/24 03:24:03;;;;;;;13.82;12.43;;;;;;;13.51;100.00;93519.28;2133638;27;20404;-67
2022/07/24 03:25:04;;;;;;;13.15;11.85;;;;;;;13.52;100.00;93515.41;2134293;27;20780;-68
2022/07/24 03:26:05;;;;;;;14.90;12.48;;;;;;;13.49;100.00;93508.97;2127742;27;20042;-67
2022/07/24 03:27:06;;;;;;;16.70;12.45;;;;;;;13.38;100.00;93505.06;2128371;27;20049;-68
2022/07/24 03:28:07;;;;;;;13.43;12.02;;;;;;;13.38;100.00;93505.06;2128415;27;20101;-69
2022/07/24 03:29:08;;;;;;;13.52;12.15;;;;;;;13.39;100.00;93510.03;2128835;27;20060;-67
2022/07/24 03:30:09;;;;;;;13.40;12.05;;;;;;;13.47;100.00;93508.63;2127885;27;20057;-68
2022/07/24 03:31:10;;;;;;;14.35;12.88;;;;;;;13.46;100.00;93509.81;2127745;27;20050;-67
2022/07/24 03:32:11;;;;;;;14.70;13.20;;;;;;;13.33;100.00;93509.75;2128044;27;20463;-67
2022/07/24 03:33:12;;;;;;;14.43;13.00;;;;;;;13.19;100.00;93506.66;2128563;27;20114;-67
2022/07/24 03:34:13;;;;;;;13.77;12.35;;;;;;;13.27;100.00;93510.72;2128294;27;20026;-68
2022/07/24 03:35:14;;;;;;;14.50;12.55;;;;;;;13.37;100.00;93515.03;2128040;27;20054;-70
2022/07/24 03:36:15;;;;;;;14.52;13.05;;;;;;;13.35;100.00;93510.09;2127712;27;20027;-67
2022/07/24 03:37:16;;;;;;;14.18;12.77;;;;;;;13.29;100.00;93519.84;2127649;27;20027;-68
2022/07/24 03:38:17;;;;;;;15.55;12.30;;;;;;;13.24;100.00;93516.91;2128352;27;20037;-67
2022/07/24 03:39:19;;;;;;;13.85;12.43;;;;;;;13.25;100.00;93508.44;2128324;27;20744;-67
2022/07/24 03:40:20;;;;;;;15.30;13.32;;;;;;;13.22;100.00;93511.19;2128159;27;20035;-69
2022/07/24 03:41:21;;;;;;;14.68;12.48;;;;;;;13.33;100.00;93514.38;2128516;27;20041;-67
2022/07/24 03:42:22;;;;;;;15.00;13.50;;;;;;;13.27;100.00;93521.44;2128502;27;20025;-67
2022/07/24 03:43:23;;;;;;;14.85;12.90;;;;;;;13.11;100.00;93525.63;2127857;27;20167;-69
2022/07/24 03:44:24;;;;;;;16.13;12.25;;;;;;;13.18;100.00;93518.59;2127723;27;20128;-68
2022/07/24 03:45:25;;;;;;;14.40;12.98;;;;;;;13.16;100.00;93523.59;2127658;27;20030;-67
2022/07/24 03:46:28;;;;;;;13.68;12.27;;;;;;;13.24;100.00;93522.28;2128391;27;20031;-68
2022/07/24 03:47:29;;;;;;;14.32;12.65;;;;;;;13.17;100.00;93519.75;2128292;27;20026;-70
2022/07/24 03:48:30;;;;;;;15.55;12.38;;;;;;;13.16;100.00;93529.72;2128273;27;20050;-66
2022/07/24 03:49:32;;;;;;;14.63;13.10;;;;;;;13.22;100.00;93519.25;2128229;27;20034;-67
2022/07/24 03:50:32;;;;;;;14.52;12.88;;;;;;;13.22;100.00;93524.63;2116751;27;20027;-67
2022/07/24 03:51:35;;;;;;;13.98;12.07;;;;;;;13.32;100.00;93523.63;2108366;28;20604;-66
2022/07/24 03:52:36;;;;;;;13.98;11.80;;;;;;;13.35;100.00;93517.41;2117591;27;20467;-68
2022/07/24 03:53:36;;;;;;;13.70;12.13;;;;;;;13.40;100.00;93516.88;2128575;27;20022;-70
2022/07/24 03:54:38;;;;;;;13.13;11.82;;;;;;;13.31;100.00;93519.44;2127871;27;20026;-67
2022/07/24 03:55:39;;;;;;;17.83;12.60;;;;;;;13.35;100.00;93522.78;2127219;27;20821;-68
2022/07/24 03:56:39;;;;;;;15.70;13.25;;;;;;;13.42;100.00;93522.56;2127331;27;20038;-67
2022/07/24 03:57:40;;;;;;;14.52;13.02;;;;;;;13.28;100.00;93514.91;2128757;27;20080;-67
2022/07/24 03:58:42;;;;;;;14.48;11.77;;;;;;;13.34;100.00;93522.03;2128377;27;20068;-68
2022/07/24 03:59:43;;;;;;;13.80;12.32;;;;;;;13.31;100.00;93522.88;2127520;27;20042;-70
2022/07/24 04:00:44;;;;;;;13.18;11.77;;;;;;;13.33;100.00;93519.75;2127710;27;20365;-71
2022/07/24 04:01:45;;;;;;;13.65;12.25;;;;;;;13.28;100.00;93528.31;2126412;27;20030;-67
2022/07/24 04:02:46;;;;;;;15.25;12.40;;;;;;;13.25;100.00;93523.78;2127599;27;20081;-67
2022/07/24 04:03:47;;;;;;;13.40;12.02;;;;;;;13.22;100.00;93525.41;2126861;27;20402;-67
2022/07/24 04:04:48;;;;;;;13.93;12.43;;;;;;;13.23;100.00;93532.28;2125748;27;20153;-69
2022/07/24 04:05:49;;;;;;;18.50;13.10;;;;;;;13.24;100.00;93523.03;2127782;27;20039;-70
2022/07/24 04:06:50;;;;;;;13.48;12.07;;;;;;;13.27;100.00;93530.25;2125713;27;20035;-67
2022/07/24 04:07:51;;;;;;;15.32;12.38;;;;;;;13.31;100.00;93527.47;2126260;27;20035;-71
2022/07/24 04:08:52;;;;;;;14.85;12.23;;;;;;;13.29;100.00;93535.94;2126401;27;20035;-67
2022/07/24 04:09:53;;;;;;;13.38;12.02;;;;;;;13.29;100.00;93533.25;2125547;27;20045;-67
2022/07/24 04:10:56;;;;;;;13.07;11.80;;;;;;;13.29;100.00;93532.50;2126941;27;20035;-70
2022/07/24 04:11:58;;;;;;;14.07;12.57;;;;;;;13.16;100.00;93534.34;2127164;27;20031;-67
2022/07/24 04:12:59;;;;;;;17.38;12.43;;;;;;;13.26;100.00;93534.13;2127495;27;20034;-67
2022/07/24 04:14:00;;;;;;;13.63;12.20;;;;;;;13.21;100.00;93537.25;2127606;27;20587;-70
2022/07/24 04:15:02;;;;;;;13.98;12.00;;;;;;;13.24;100.00;93527.66;2126688;27;20489;-66
2022/07/24 04:16:04;;;;;;;14.63;13.13;;;;;;;13.24;100.00;93533.78;2126403;27;20037;-67
2022/07/24 04:17:05;;;;;;;15.13;13.02;;;;;;;13.17;100.00;93530.47;2127289;27;20563;-68
2022/07/24 04:18:06;;;;;;;14.48;12.98;;;;;;;13.24;100.00;93538.41;2128424;27;20452;-67
2022/07/24 04:19:07;;;;;;;14.50;12.82;;;;;;;13.22;100.00;93538.81;2126537;27;20042;-67
2022/07/24 04:20:09;;;;;;;15.90;12.88;;;;;;;13.18;100.00;93537.38;2125091;27;20065;-67
2022/07/24 04:21:12;;;;;;;14.65;12.73;;;;;;;13.26;100.00;93533.38;2125999;27;20031;-70
2022/07/24 04:22:12;;;;;;;15.57;12.98;;;;;;;13.28;100.00;93533.69;2126604;27;20475;-72
2022/07/24 04:23:14;;;;;;;14.00;12.63;;;;;;;13.27;100.00;93534.88;2125843;27;20035;-68
2022/07/24 04:24:15;;;;;;;14.38;12.85;;;;;;;13.19;100.00;93534.25;2126032;27;20498;-67
2022/07/24 04:25:16;;;;;;;14.23;12.85;;;;;;;13.25;100.00;93537.97;2126744;27;20041;-70
2022/07/24 04:26:17;;;;;;;14.18;12.77;;;;;;;13.32;100.00;93532.44;2126970;27;20025;-67
2022/07/24 04:27:18;;;;;;;15.30;12.30;;;;;;;13.32;100.00;93534.34;2125028;27;20035;-69
2022/07/24 04:28:19;;;;;;;14.15;12.75;;;;;;;13.21;100.00;93533.84;2125966;27;20027;-68
2022/07/24 04:29:20;;;;;;;14.02;12.50;;;;;;;13.15;100.00;93532.84;2125534;27;20031;-68
2022/07/24 04:30:21;;;;;;;14.20;12.70;;;;;;;13.16;100.00;93535.09;2126556;27;20105;-66
2022/07/24 04:31:23;;;;;;;13.65;12.35;;;;;;;13.24;100.00;93535.72;2126422;27;20035;-67
2022/07/24 04:32:25;;;;;;;17.38;13.25;;;;;;;13.27;100.00;93534.88;2125817;27;20171;-67
2022/07/24 04:33:26;;;;;;;15.18;13.60;;;;;;;13.18;100.00;93540.81;2126736;27;20023;-67
2022/07/24 04:34:26;;;;;;;15.30;12.45;;;;;;;13.18;100.00;93546.19;2125268;27;20027;-67
2022/07/24 04:35:27;;;;;;;13.98;12.60;;;;;;;13.23;100.00;93543.00;2126619;27;20023;-70
2022/07/24 04:36:29;;;;;;;15.30;13.00;;;;;;;13.24;100.00;93544.50;2124820;27;20392;-67
2022/07/24 04:37:30;;;;;;;14.77;13.32;;;;;;;13.26;100.00;93542.19;2124240;27;20113;-68
2022/07/24 04:38:32;;;;;;;14.45;12.95;;;;;;;13.29;100.00;93549.38;2125260;27;20027;-67
2022/07/24 04:39:33;;;;;;;13.88;12.60;;;;;;;13.26;100.00;93550.22;2126632;27;20038;-69